sensor_id;sensor_type;location;lat;lon;timestamp;pressure;altitude;pressure_sealevel;temperature;humidity
59063;BME280;44851;45.648;9.004;2023-07-28T00:01:26;98750.34;;;22.35;51.47
59063;BME280;44851;45.648;9.004;2023-07-28T00:03:52;98746.50;;;22.30;51.57
59063;BME280;44851;45.648;9.004;2023-07-28T00:06:17;98742.00;;;22.31;51.61
59063;BME280;44851;45.648;9.004;2023-07-28T00:08:45;98742.94;;;22.37;51.02
59063;BME280;44851;45.648;9.004;2023-07-28T00:11:13;98742.81;;;22.31;50.52
59063;BME280;44851;45.648;9.004;2023-07-28T00:13:40;98738.09;;;22.33;50.79
59063;BME280;44851;45.648;9.004;2023-07-28T00:16:06;98731.44;;;22.24;50.42
59063;BME280;44851;45.648;9.004;2023-07-28T00:18:32;98728.22;;;22.22;50.33
59063;BME280;44851;45.648;9.004;2023-07-28T00:20:57;98727.84;;;22.19;50.64
59063;BME280;44851;45.648;9.004;2023-07-28T00:23:23;98722.16;;;22.15;50.86
59063;BME280;44851;45.648;9.004;2023-07-28T00:25:48;98719.50;;;22.15;50.94
59063;BME280;44851;45.648;9.004;2023-07-28T00:28:14;98718.13;;;22.13;50.87
59063;BME280;44851;45.648;9.004;2023-07-28T00:30:39;98713.59;;;22.13;50.58
59063;BME280;44851;45.648;9.004;2023-07-28T00:33:05;98712.56;;;21.96;51.00
59063;BME280;44851;45.648;9.004;2023-07-28T00:35:30;98710.06;;;22.01;50.70
59063;BME280;44851;45.648;9.004;2023-07-28T00:37:56;98708.81;;;22.03;50.94
59063;BME280;44851;45.648;9.004;2023-07-28T00:40:22;98715.31;;;22.08;51.59
59063;BME280;44851;45.648;9.004;2023-07-28T00:42:48;98709.19;;;22.07;51.36
59063;BME280;44851;45.648;9.004;2023-07-28T00:45:13;98714.94;;;22.04;51.38
59063;BME280;44851;45.648;9.004;2023-07-28T00:47:39;98720.03;;;22.05;51.76
59063;BME280;44851;45.648;9.004;2023-07-28T00:50:05;98717.06;;;21.95;51.46
59063;BME280;44851;45.648;9.004;2023-07-28T00:52:31;98726.34;;;22.04;51.76
59063;BME280;44851;45.648;9.004;2023-07-28T00:54:57;98722.88;;;22.04;51.85
59063;BME280;44851;45.648;9.004;2023-07-28T00:57:22;98717.59;;;22.04;51.78
59063;BME280;44851;45.648;9.004;2023-07-28T00:59:48;98721.00;;;22.11;51.65
59063;BME280;44851;45.648;9.004;2023-07-28T01:02:13;98722.88;;;22.04;52.03
59063;BME280;44851;45.648;9.004;2023-07-28T01:04:40;98735.72;;;22.07;51.89
59063;BME280;44851;45.648;9.004;2023-07-28T01:07:20;98736.63;;;22.01;51.82
59063;BME280;44851;45.648;9.004;2023-07-28T01:10:28;98730.63;;;21.87;52.13
59063;BME280;44851;45.648;9.004;2023-07-28T01:12:55;98737.69;;;21.93;52.16
59063;BME280;44851;45.648;9.004;2023-07-28T01:15:20;98734.69;;;21.83;52.90
59063;BME280;44851;45.648;9.004;2023-07-28T01:17:46;98738.34;;;21.89;53.22
59063;BME280;44851;45.648;9.004;2023-07-28T01:20:11;98745.72;;;21.87;52.77
59063;BME280;44851;45.648;9.004;2023-07-28T01:25:43;98731.44;;;21.88;52.83
59063;BME280;44851;45.648;9.004;2023-07-28T01:28:04;98744.91;;;21.86;52.71
59063;BME280;44851;45.648;9.004;2023-07-28T01:30:30;98735.50;;;21.84;52.81
59063;BME280;44851;45.648;9.004;2023-07-28T01:32:56;98741.84;;;21.83;52.60
59063;BME280;44851;45.648;9.004;2023-07-28T01:35:22;98742.47;;;21.85;51.99
59063;BME280;44851;45.648;9.004;2023-07-28T01:37:48;98738.34;;;21.89;51.66
59063;BME280;44851;45.648;9.004;2023-07-28T01:40:17;98735.97;;;21.80;51.73
59063;BME280;44851;45.648;9.004;2023-07-28T01:42:42;98747.81;;;21.78;51.86
59063;BME280;44851;45.648;9.004;2023-07-28T01:45:08;98748.19;;;21.81;51.06
59063;BME280;44851;45.648;9.004;2023-07-28T01:47:34;98748.63;;;21.78;51.38
59063;BME280;44851;45.648;9.004;2023-07-28T01:49:59;98749.00;;;21.82;51.45
59063;BME280;44851;45.648;9.004;2023-07-28T01:52:25;98737.34;;;21.83;51.05
59063;BME280;44851;45.648;9.004;2023-07-28T01:54:50;98737.16;;;21.85;51.37
59063;BME280;44851;45.648;9.004;2023-07-28T01:57:17;98742.03;;;21.88;51.05
59063;BME280;44851;45.648;9.004;2023-07-28T01:59:42;98740.13;;;21.95;50.64
59063;BME280;44851;45.648;9.004;2023-07-28T02:02:09;98734.47;;;21.91;50.78
59063;BME280;44851;45.648;9.004;2023-07-28T02:04:34;98731.09;;;21.77;50.82
59063;BME280;44851;45.648;9.004;2023-07-28T02:07:00;98734.69;;;21.83;50.82
59063;BME280;44851;45.648;9.004;2023-07-28T02:09:26;98729.19;;;21.85;50.82
59063;BME280;44851;45.648;9.004;2023-07-28T02:11:52;98708.59;;;21.87;50.57
59063;BME280;44851;45.648;9.004;2023-07-28T02:14:17;98707.81;;;21.79;50.91
59063;BME280;44851;45.648;9.004;2023-07-28T02:16:43;98711.84;;;21.82;50.92
59063;BME280;44851;45.648;9.004;2023-07-28T02:19:08;98715.09;;;21.84;50.91
59063;BME280;44851;45.648;9.004;2023-07-28T02:21:33;98709.69;;;21.72;51.64
59063;BME280;44851;45.648;9.004;2023-07-28T02:24:00;98707.44;;;21.76;51.17
59063;BME280;44851;45.648;9.004;2023-07-28T02:26:25;98708.81;;;21.78;51.40
59063;BME280;44851;45.648;9.004;2023-07-28T02:28:50;98703.16;;;21.75;51.37
59063;BME280;44851;45.648;9.004;2023-07-28T02:31:16;98705.50;;;21.65;51.89
59063;BME280;44851;45.648;9.004;2023-07-28T02:33:41;98697.78;;;21.63;51.57
59063;BME280;44851;45.648;9.004;2023-07-28T02:36:06;98703.06;;;21.63;51.39
59063;BME280;44851;45.648;9.004;2023-07-28T02:38:32;98699.38;;;21.64;51.52
59063;BME280;44851;45.648;9.004;2023-07-28T02:40:57;98707.19;;;21.59;52.28
59063;BME280;44851;45.648;9.004;2023-07-28T02:43:23;98696.19;;;21.55;51.78
59063;BME280;44851;45.648;9.004;2023-07-28T02:45:53;98706.38;;;21.59;51.54
59063;BME280;44851;45.648;9.004;2023-07-28T02:48:18;98708.22;;;21.58;51.95
59063;BME280;44851;45.648;9.004;2023-07-28T02:50:47;98713.28;;;21.60;51.49
59063;BME280;44851;45.648;9.004;2023-07-28T02:53:13;98712.91;;;21.56;51.80
59063;BME280;44851;45.648;9.004;2023-07-28T02:55:46;98715.38;;;21.58;51.28
59063;BME280;44851;45.648;9.004;2023-07-28T02:58:12;98709.69;;;21.54;51.87
59063;BME280;44851;45.648;9.004;2023-07-28T03:00:38;98714.53;;;21.57;51.76
59063;BME280;44851;45.648;9.004;2023-07-28T03:03:05;98699.50;;;21.51;51.97
59063;BME280;44851;45.648;9.004;2023-07-28T03:05:33;98694.63;;;21.48;51.71
59063;BME280;44851;45.648;9.004;2023-07-28T03:07:59;98697.44;;;21.53;52.13
59063;BME280;44851;45.648;9.004;2023-07-28T03:10:25;98710.38;;;21.43;51.96
59063;BME280;44851;45.648;9.004;2023-07-28T03:12:50;98690.22;;;21.42;52.44
59063;BME280;44851;45.648;9.004;2023-07-28T03:15:16;98693.44;;;21.44;51.81
59063;BME280;44851;45.648;9.004;2023-07-28T03:17:41;98687.91;;;21.45;51.77
59063;BME280;44851;45.648;9.004;2023-07-28T03:20:07;98700.53;;;21.50;51.84
59063;BME280;44851;45.648;9.004;2023-07-28T03:22:32;98705.66;;;21.45;51.93
59063;BME280;44851;45.648;9.004;2023-07-28T03:24:58;98701.47;;;21.37;51.85
59063;BME280;44851;45.648;9.004;2023-07-28T03:27:23;98694.38;;;21.31;53.48
59063;BME280;44851;45.648;9.004;2023-07-28T03:29:50;98688.84;;;21.33;53.43
59063;BME280;44851;45.648;9.004;2023-07-28T03:32:15;98684.84;;;21.23;53.25
59063;BME280;44851;45.648;9.004;2023-07-28T03:34:40;98677.75;;;21.17;53.98
59063;BME280;44851;45.648;9.004;2023-07-28T03:37:06;98674.50;;;21.15;53.67
59063;BME280;44851;45.648;9.004;2023-07-28T03:39:31;98667.38;;;21.09;53.81
59063;BME280;44851;45.648;9.004;2023-07-28T03:41:57;98675.69;;;21.19;54.39
59063;BME280;44851;45.648;9.004;2023-07-28T03:44:23;98678.94;;;21.21;54.38
59063;BME280;44851;45.648;9.004;2023-07-28T03:46:48;98677.56;;;21.12;54.48
59063;BME280;44851;45.648;9.004;2023-07-28T03:49:14;98664.78;;;21.02;54.42
59063;BME280;44851;45.648;9.004;2023-07-28T03:51:39;98672.50;;;21.04;54.10
59063;BME280;44851;45.648;9.004;2023-07-28T03:54:04;98661.31;;;21.02;54.01
59063;BME280;44851;45.648;9.004;2023-07-28T03:56:30;98652.22;;;20.91;54.66
59063;BME280;44851;45.648;9.004;2023-07-28T03:58:55;98656.28;;;20.94;54.23
59063;BME280;44851;45.648;9.004;2023-07-28T04:01:21;98648.94;;;20.96;54.17
59063;BME280;44851;45.648;9.004;2023-07-28T04:03:47;98650.13;;;21.00;54.44
59063;BME280;44851;45.648;9.004;2023-07-28T04:06:13;98646.94;;;20.91;54.25
59063;BME280;44851;45.648;9.004;2023-07-28T04:08:39;98658.94;;;20.94;54.42
59063;BME280;44851;45.648;9.004;2023-07-28T04:11:05;98660.81;;;20.87;54.69
59063;BME280;44851;45.648;9.004;2023-07-28T04:13:31;98671.81;;;20.90;54.71
59063;BME280;44851;45.648;9.004;2023-07-28T04:15:56;98680.03;;;20.75;55.52
59063;BME280;44851;45.648;9.004;2023-07-28T04:18:22;98677.16;;;20.77;55.79
59063;BME280;44851;45.648;9.004;2023-07-28T04:20:48;98683.28;;;20.77;55.55
59063;BME280;44851;45.648;9.004;2023-07-28T04:23:13;98685.34;;;20.75;55.66
59063;BME280;44851;45.648;9.004;2023-07-28T04:25:39;98697.19;;;20.66;55.39
59063;BME280;44851;45.648;9.004;2023-07-28T04:28:04;98694.72;;;20.71;55.31
59063;BME280;44851;45.648;9.004;2023-07-28T04:30:29;98692.25;;;20.76;54.96
59063;BME280;44851;45.648;9.004;2023-07-28T04:32:55;98698.19;;;20.72;55.84
59063;BME280;44851;45.648;9.004;2023-07-28T04:35:20;98707.28;;;20.83;56.18
59063;BME280;44851;45.648;9.004;2023-07-28T04:37:46;98708.94;;;20.84;55.39
59063;BME280;44851;45.648;9.004;2023-07-28T04:40:11;98715.50;;;20.74;55.55
59063;BME280;44851;45.648;9.004;2023-07-28T04:42:37;98718.91;;;20.82;54.98
59063;BME280;44851;45.648;9.004;2023-07-28T04:45:03;98711.78;;;20.82;54.75
59063;BME280;44851;45.648;9.004;2023-07-28T04:47:29;98720.13;;;20.86;55.49
59063;BME280;44851;45.648;9.004;2023-07-28T04:49:54;98720.72;;;20.88;55.90
59063;BME280;44851;45.648;9.004;2023-07-28T04:52:19;98713.78;;;20.87;55.88
59063;BME280;44851;45.648;9.004;2023-07-28T04:54:45;98723.53;;;20.93;55.63
59063;BME280;44851;45.648;9.004;2023-07-28T04:57:10;98719.66;;;20.95;55.35
59063;BME280;44851;45.648;9.004;2023-07-28T04:59:36;98723.06;;;21.02;54.98
59063;BME280;44851;45.648;9.004;2023-07-28T05:02:01;98717.72;;;21.09;54.67
59063;BME280;44851;45.648;9.004;2023-07-28T05:04:26;98725.09;;;21.07;54.33
59063;BME280;44851;45.648;9.004;2023-07-28T05:06:52;98729.16;;;21.16;54.06
59063;BME280;44851;45.648;9.004;2023-07-28T05:09:17;98727.41;;;21.28;53.77
59063;BME280;44851;45.648;9.004;2023-07-28T05:11:43;98725.03;;;21.20;54.47
59063;BME280;44851;45.648;9.004;2023-07-28T05:14:08;98728.84;;;20.93;54.10
59063;BME280;44851;45.648;9.004;2023-07-28T05:16:34;98734.44;;;21.16;54.31
59063;BME280;44851;45.648;9.004;2023-07-28T05:18:59;98732.31;;;21.25;54.35
59063;BME280;44851;45.648;9.004;2023-07-28T05:21:25;98731.50;;;21.24;54.28
59063;BME280;44851;45.648;9.004;2023-07-28T05:23:50;98729.56;;;21.13;54.17
59063;BME280;44851;45.648;9.004;2023-07-28T05:26:16;98721.78;;;21.18;54.54
59063;BME280;44851;45.648;9.004;2023-07-28T05:28:41;98719.88;;;20.94;54.63
59063;BME280;44851;45.648;9.004;2023-07-28T05:31:07;98721.69;;;21.32;54.11
59063;BME280;44851;45.648;9.004;2023-07-28T05:33:33;98725.69;;;21.41;54.14
59063;BME280;44851;45.648;9.004;2023-07-28T05:36:02;98732.00;;;21.40;54.96
59063;BME280;44851;45.648;9.004;2023-07-28T05:38:27;98724.44;;;21.43;54.93
59063;BME280;44851;45.648;9.004;2023-07-28T05:41:00;98730.94;;;21.47;54.95
59063;BME280;44851;45.648;9.004;2023-07-28T05:43:27;98733.81;;;21.46;54.79
59063;BME280;44851;45.648;9.004;2023-07-28T05:45:52;98739.22;;;21.33;54.97
59063;BME280;44851;45.648;9.004;2023-07-28T05:48:18;98737.94;;;21.42;56.47
59063;BME280;44851;45.648;9.004;2023-07-28T05:50:43;98741.16;;;21.44;55.11
59063;BME280;44851;45.648;9.004;2023-07-28T05:53:09;98737.16;;;21.35;55.14
59063;BME280;44851;45.648;9.004;2023-07-28T05:55:34;98747.13;;;21.39;54.93
59063;BME280;44851;45.648;9.004;2023-07-28T05:57:59;98742.94;;;21.25;55.83
59063;BME280;44851;45.648;9.004;2023-07-28T06:00:25;98736.72;;;21.38;55.28
59063;BME280;44851;45.648;9.004;2023-07-28T06:02:51;98747.22;;;21.51;55.49
59063;BME280;44851;45.648;9.004;2023-07-28T06:05:16;98745.66;;;21.43;55.83
59063;BME280;44851;45.648;9.004;2023-07-28T06:07:42;98753.00;;;21.41;55.16
59063;BME280;44851;45.648;9.004;2023-07-28T06:10:07;98751.28;;;21.28;55.75
59063;BME280;44851;45.648;9.004;2023-07-28T06:12:33;98753.72;;;21.55;55.46
59063;BME280;44851;45.648;9.004;2023-07-28T06:14:58;98750.56;;;21.40;54.15
59063;BME280;44851;45.648;9.004;2023-07-28T06:17:24;98751.06;;;21.80;54.91
59063;BME280;44851;45.648;9.004;2023-07-28T06:19:52;98757.38;;;21.86;53.21
59063;BME280;44851;45.648;9.004;2023-07-28T06:22:18;98758.28;;;21.98;53.25
59063;BME280;44851;45.648;9.004;2023-07-28T06:24:43;98755.66;;;22.16;50.84
59063;BME280;44851;45.648;9.004;2023-07-28T06:27:09;98761.41;;;22.50;52.15
59063;BME280;44851;45.648;9.004;2023-07-28T06:29:35;98767.59;;;22.80;50.50
59063;BME280;44851;45.648;9.004;2023-07-28T06:32:01;98767.41;;;22.94;49.84
59063;BME280;44851;45.648;9.004;2023-07-28T06:34:26;98770.25;;;23.10;49.45
59063;BME280;44851;45.648;9.004;2023-07-28T06:36:52;98776.88;;;23.50;48.85
59063;BME280;44851;45.648;9.004;2023-07-28T06:39:17;98783.44;;;23.47;48.16
59063;BME280;44851;45.648;9.004;2023-07-28T06:41:43;98779.41;;;23.45;48.66
59063;BME280;44851;45.648;9.004;2023-07-28T06:44:08;98777.75;;;23.44;48.47
59063;BME280;44851;45.648;9.004;2023-07-28T06:46:34;98783.44;;;23.59;48.98
59063;BME280;44851;45.648;9.004;2023-07-28T06:48:59;98788.94;;;23.87;48.38
59063;BME280;44851;45.648;9.004;2023-07-28T06:51:25;98782.91;;;24.27;47.80
59063;BME280;44851;45.648;9.004;2023-07-28T06:53:51;98779.53;;;24.44;46.97
59063;BME280;44851;45.648;9.004;2023-07-28T06:56:17;98782.09;;;24.62;45.87
59063;BME280;44851;45.648;9.004;2023-07-28T06:58:42;98776.22;;;24.77;45.67
59063;BME280;44851;45.648;9.004;2023-07-28T07:01:09;98779.81;;;25.11;45.71
59063;BME280;44851;45.648;9.004;2023-07-28T07:03:36;98780.19;;;25.03;44.68
59063;BME280;44851;45.648;9.004;2023-07-28T07:06:02;98782.97;;;25.36;44.31
59063;BME280;44851;45.648;9.004;2023-07-28T07:08:27;98779.31;;;25.42;44.21
59063;BME280;44851;45.648;9.004;2023-07-28T07:10:53;98780.47;;;25.47;43.15
59063;BME280;44851;45.648;9.004;2023-07-28T07:13:18;98784.03;;;25.69;42.01
59063;BME280;44851;45.648;9.004;2023-07-28T07:15:44;98783.53;;;26.06;42.54
59063;BME280;44851;45.648;9.004;2023-07-28T07:18:10;98781.88;;;26.21;43.85
59063;BME280;44851;45.648;9.004;2023-07-28T07:20:37;98787.66;;;26.35;41.37
59063;BME280;44851;45.648;9.004;2023-07-28T07:23:06;98782.59;;;26.56;42.10
59063;BME280;44851;45.648;9.004;2023-07-28T07:25:31;98779.50;;;26.64;40.34
59063;BME280;44851;45.648;9.004;2023-07-28T07:27:57;98781.00;;;26.55;41.24
59063;BME280;44851;45.648;9.004;2023-07-28T07:30:22;98783.84;;;26.70;40.91
59063;BME280;44851;45.648;9.004;2023-07-28T07:32:48;98778.88;;;26.57;41.07
59063;BME280;44851;45.648;9.004;2023-07-28T07:35:13;98786.38;;;27.04;39.27
59063;BME280;44851;45.648;9.004;2023-07-28T07:37:40;98776.66;;;26.97;39.08
59063;BME280;44851;45.648;9.004;2023-07-28T07:40:06;98777.00;;;27.28;38.98
59063;BME280;44851;45.648;9.004;2023-07-28T07:43:02;98780.63;;;26.95;39.42
59063;BME280;44851;45.648;9.004;2023-07-28T07:45:31;98768.97;;;27.28;39.01
59063;BME280;44851;45.648;9.004;2023-07-28T07:47:56;98772.63;;;27.22;39.45
59063;BME280;44851;45.648;9.004;2023-07-28T07:50:22;98779.75;;;27.38;40.06
59063;BME280;44851;45.648;9.004;2023-07-28T07:52:47;98782.53;;;27.21;39.41
59063;BME280;44851;45.648;9.004;2023-07-28T07:55:13;98782.19;;;27.40;38.55
59063;BME280;44851;45.648;9.004;2023-07-28T07:57:39;98783.25;;;27.39;37.73
59063;BME280;44851;45.648;9.004;2023-07-28T08:00:06;98782.22;;;27.77;37.67
59063;BME280;44851;45.648;9.004;2023-07-28T08:02:32;98780.16;;;27.89;39.52
59063;BME280;44851;45.648;9.004;2023-07-28T08:04:57;98782.88;;;27.94;37.23
59063;BME280;44851;45.648;9.004;2023-07-28T08:07:23;98785.53;;;27.89;37.29
59063;BME280;44851;45.648;9.004;2023-07-28T08:09:49;98790.94;;;27.99;36.45
59063;BME280;44851;45.648;9.004;2023-07-28T08:12:15;98782.47;;;28.18;37.36
59063;BME280;44851;45.648;9.004;2023-07-28T08:14:41;98786.13;;;28.01;36.59
59063;BME280;44851;45.648;9.004;2023-07-28T08:17:06;98776.63;;;28.21;36.83
59063;BME280;44851;45.648;9.004;2023-07-28T08:19:32;98772.72;;;28.01;36.72
59063;BME280;44851;45.648;9.004;2023-07-28T08:21:57;98778.50;;;27.78;36.31
59063;BME280;44851;45.648;9.004;2023-07-28T08:24:23;98777.47;;;28.26;36.10
59063;BME280;44851;45.648;9.004;2023-07-28T08:26:48;98777.84;;;28.45;35.97
59063;BME280;44851;45.648;9.004;2023-07-28T08:29:14;98769.28;;;28.59;34.75
59063;BME280;44851;45.648;9.004;2023-07-28T08:31:40;98766.63;;;28.59;34.60
59063;BME280;44851;45.648;9.004;2023-07-28T08:34:07;98770.94;;;28.75;33.18
59063;BME280;44851;45.648;9.004;2023-07-28T08:36:33;98779.59;;;28.92;34.21
59063;BME280;44851;45.648;9.004;2023-07-28T08:38:58;98775.34;;;29.06;34.85
59063;BME280;44851;45.648;9.004;2023-07-28T08:41:24;98780.22;;;29.35;33.54
59063;BME280;44851;45.648;9.004;2023-07-28T08:43:50;98775.44;;;29.42;33.19
59063;BME280;44851;45.648;9.004;2023-07-28T08:46:17;98777.03;;;29.43;33.24
59063;BME280;44851;45.648;9.004;2023-07-28T08:48:43;98777.56;;;29.86;33.54
59063;BME280;44851;45.648;9.004;2023-07-28T08:51:09;98779.72;;;29.74;32.83
59063;BME280;44851;45.648;9.004;2023-07-28T08:53:37;98779.16;;;29.92;33.64
59063;BME280;44851;45.648;9.004;2023-07-28T08:56:03;98780.25;;;29.71;32.07
59063;BME280;44851;45.648;9.004;2023-07-28T08:58:29;98786.16;;;29.52;31.88
59063;BME280;44851;45.648;9.004;2023-07-28T09:00:55;98774.63;;;29.52;32.63
59063;BME280;44851;45.648;9.004;2023-07-28T09:03:21;98780.25;;;29.61;31.91
59063;BME280;44851;45.648;9.004;2023-07-28T09:05:48;98779.16;;;29.77;31.89
59063;BME280;44851;45.648;9.004;2023-07-28T09:08:14;98772.47;;;29.54;31.97
59063;BME280;44851;45.648;9.004;2023-07-28T09:10:44;98778.09;;;29.93;32.12
59063;BME280;44851;45.648;9.004;2023-07-28T09:13:13;98783.47;;;29.68;32.72
59063;BME280;44851;45.648;9.004;2023-07-28T09:15:39;98781.81;;;30.13;34.82
59063;BME280;44851;45.648;9.004;2023-07-28T09:18:12;98777.97;;;30.44;34.78
59063;BME280;44851;45.648;9.004;2023-07-28T09:20:40;98781.72;;;30.48;30.77
59063;BME280;44851;45.648;9.004;2023-07-28T09:23:07;98788.19;;;30.47;30.64
59063;BME280;44851;45.648;9.004;2023-07-28T09:25:33;98785.91;;;30.75;30.67
59063;BME280;44851;45.648;9.004;2023-07-28T09:27:59;98780.16;;;30.42;32.20
59063;BME280;44851;45.648;9.004;2023-07-28T09:30:25;98781.72;;;30.48;30.86
59063;BME280;44851;45.648;9.004;2023-07-28T09:32:53;98784.13;;;30.50;30.01
59063;BME280;44851;45.648;9.004;2023-07-28T09:35:19;98782.31;;;30.25;30.70
59063;BME280;44851;45.648;9.004;2023-07-28T09:37:49;98775.31;;;30.29;29.97
59063;BME280;44851;45.648;9.004;2023-07-28T09:40:20;98772.34;;;30.25;30.80
59063;BME280;44851;45.648;9.004;2023-07-28T09:42:47;98777.97;;;30.44;30.84
59063;BME280;44851;45.648;9.004;2023-07-28T09:45:17;98786.31;;;30.38;30.91
59063;BME280;44851;45.648;9.004;2023-07-28T09:47:46;98776.91;;;30.45;30.12
59063;BME280;44851;45.648;9.004;2023-07-28T09:50:15;98774.63;;;30.68;31.36
59063;BME280;44851;45.648;9.004;2023-07-28T09:52:49;98768.72;;;30.71;29.84
59063;BME280;44851;45.648;9.004;2023-07-28T09:55:18;98772.50;;;30.65;29.51
59063;BME280;44851;45.648;9.004;2023-07-28T09:57:46;98766.81;;;30.71;30.98
59063;BME280;44851;45.648;9.004;2023-07-28T10:00:15;98757.81;;;31.01;32.01
59063;BME280;44851;45.648;9.004;2023-07-28T10:02:42;98768.97;;;31.19;29.65
59063;BME280;44851;45.648;9.004;2023-07-28T10:05:08;98766.00;;;30.76;29.93
59063;BME280;44851;45.648;9.004;2023-07-28T10:07:37;98763.72;;;30.98;29.65
59063;BME280;44851;45.648;9.004;2023-07-28T10:10:04;98762.00;;;30.63;29.63
59063;BME280;44851;45.648;9.004;2023-07-28T10:12:51;98762.22;;;30.77;29.78
59063;BME280;44851;45.648;9.004;2023-07-28T10:15:18;98760.94;;;31.13;30.92
59063;BME280;44851;45.648;9.004;2023-07-28T10:17:50;98766.00;;;31.20;29.07
59063;BME280;44851;45.648;9.004;2023-07-28T10:20:32;98767.59;;;30.77;29.86
59063;BME280;44851;45.648;9.004;2023-07-28T10:23:13;98757.69;;;31.17;29.93
59063;BME280;44851;45.648;9.004;2023-07-28T10:25:40;98755.56;;;31.13;29.71
59063;BME280;44851;45.648;9.004;2023-07-28T10:28:06;98757.81;;;31.35;29.33
59063;BME280;44851;45.648;9.004;2023-07-28T10:30:37;98759.00;;;31.19;28.97
59063;BME280;44851;45.648;9.004;2023-07-28T10:33:03;98762.00;;;31.18;28.47
59063;BME280;44851;45.648;9.004;2023-07-28T10:35:29;98760.78;;;31.34;29.10
59063;BME280;44851;45.648;9.004;2023-07-28T10:37:57;98765.34;;;31.38;29.32
59063;BME280;44851;45.648;9.004;2023-07-28T10:42:58;98768.25;;;31.76;28.61
59063;BME280;44851;45.648;9.004;2023-07-28T10:45:28;98761.97;;;31.86;29.03
59063;BME280;44851;45.648;9.004;2023-07-28T10:47:55;98755.41;;;31.97;28.49
59063;BME280;44851;45.648;9.004;2023-07-28T10:50:22;98754.13;;;31.60;29.23
59063;BME280;44851;45.648;9.004;2023-07-28T10:52:48;98755.81;;;31.51;29.15
59063;BME280;44851;45.648;9.004;2023-07-28T10:55:17;98759.94;;;31.38;28.68
59063;BME280;44851;45.648;9.004;2023-07-28T10:57:44;98761.72;;;31.53;28.69
59063;BME280;44851;45.648;9.004;2023-07-28T11:00:11;98764.22;;;31.74;28.14
59063;BME280;44851;45.648;9.004;2023-07-28T11:02:39;98763.22;;;31.94;27.10
59063;BME280;44851;45.648;9.004;2023-07-28T11:05:09;98764.78;;;32.29;27.38
59063;BME280;44851;45.648;9.004;2023-07-28T11:07:35;98766.94;;;32.27;27.93
59063;BME280;44851;45.648;9.004;2023-07-28T11:10:01;98767.50;;;32.00;26.51
59063;BME280;44851;45.648;9.004;2023-07-28T11:12:27;98766.41;;;32.01;26.56
59063;BME280;44851;45.648;9.004;2023-07-28T11:14:53;98766.47;;;31.96;26.63
59063;BME280;44851;45.648;9.004;2023-07-28T11:17:20;98765.56;;;32.05;27.52
59063;BME280;44851;45.648;9.004;2023-07-28T11:19:45;98762.19;;;32.19;27.93
59063;BME280;44851;45.648;9.004;2023-07-28T11:22:10;98762.13;;;32.24;29.21
59063;BME280;44851;45.648;9.004;2023-07-28T11:24:36;98753.72;;;32.01;27.27
59063;BME280;44851;45.648;9.004;2023-07-28T11:27:01;98757.41;;;32.10;27.34
59063;BME280;44851;45.648;9.004;2023-07-28T11:29:28;98753.06;;;32.14;28.41
59063;BME280;44851;45.648;9.004;2023-07-28T11:31:53;98741.56;;;32.28;26.70
59063;BME280;44851;45.648;9.004;2023-07-28T11:34:19;98738.66;;;32.43;27.92
59063;BME280;44851;45.648;9.004;2023-07-28T11:36:44;98734.22;;;32.57;27.47
59063;BME280;44851;45.648;9.004;2023-07-28T11:39:10;98731.25;;;32.35;27.71
59063;BME280;44851;45.648;9.004;2023-07-28T11:41:38;98737.78;;;32.29;27.85
59063;BME280;44851;45.648;9.004;2023-07-28T11:44:05;98731.81;;;32.32;28.82
59063;BME280;44851;45.648;9.004;2023-07-28T11:51:41;98733.19;;;32.29;26.88
59063;BME280;44851;45.648;9.004;2023-07-28T11:54:11;98726.78;;;32.25;27.16
59063;BME280;44851;45.648;9.004;2023-07-28T11:56:40;98712.59;;;32.14;27.51
59063;BME280;44851;45.648;9.004;2023-07-28T11:59:06;98729.28;;;32.16;27.84
59063;BME280;44851;45.648;9.004;2023-07-28T12:01:31;98727.34;;;31.98;27.67
59063;BME280;44851;45.648;9.004;2023-07-28T12:03:56;98729.84;;;31.89;27.79
59063;BME280;44851;45.648;9.004;2023-07-28T12:06:25;98723.56;;;31.99;26.99
59063;BME280;44851;45.648;9.004;2023-07-28T12:08:51;98717.34;;;32.23;27.18
59063;BME280;44851;45.648;9.004;2023-07-28T12:11:16;98714.31;;;32.29;27.09
59063;BME280;44851;45.648;9.004;2023-07-28T12:13:51;98711.53;;;32.77;28.33
59063;BME280;44851;45.648;9.004;2023-07-28T12:16:40;98719.63;;;32.58;26.85
59063;BME280;44851;45.648;9.004;2023-07-28T12:19:07;98717.44;;;32.60;27.10
59063;BME280;44851;45.648;9.004;2023-07-28T12:21:32;98713.78;;;32.51;26.84
59063;BME280;44851;45.648;9.004;2023-07-28T12:23:57;98724.69;;;32.41;27.51
59063;BME280;44851;45.648;9.004;2023-07-28T12:26:23;98721.16;;;32.64;27.41
59063;BME280;44851;45.648;9.004;2023-07-28T12:28:49;98720.78;;;32.52;26.71
59063;BME280;44851;45.648;9.004;2023-07-28T12:31:14;98728.47;;;32.40;26.46
59063;BME280;44851;45.648;9.004;2023-07-28T12:33:39;98721.81;;;32.56;28.13
59063;BME280;44851;45.648;9.004;2023-07-28T12:36:05;98720.03;;;32.65;27.51
59063;BME280;44851;45.648;9.004;2023-07-28T12:38:31;98723.25;;;32.49;26.73
59063;BME280;44851;45.648;9.004;2023-07-28T12:40:56;98718.53;;;32.59;26.00
59063;BME280;44851;45.648;9.004;2023-07-28T12:43:22;98708.47;;;32.84;26.92
59063;BME280;44851;45.648;9.004;2023-07-28T12:45:48;98706.78;;;32.88;26.41
59063;BME280;44851;45.648;9.004;2023-07-28T12:48:13;98708.75;;;33.01;26.32
59063;BME280;44851;45.648;9.004;2023-07-28T12:50:38;98698.28;;;33.13;25.56
59063;BME280;44851;45.648;9.004;2023-07-28T12:53:04;98690.66;;;33.02;25.37
59063;BME280;44851;45.648;9.004;2023-07-28T12:55:29;98695.03;;;32.79;26.32
59063;BME280;44851;45.648;9.004;2023-07-28T12:57:55;98694.88;;;32.89;26.66
59063;BME280;44851;45.648;9.004;2023-07-28T13:00:20;98687.22;;;32.96;25.75
59063;BME280;44851;45.648;9.004;2023-07-28T13:02:46;98681.69;;;32.87;26.20
59063;BME280;44851;45.648;9.004;2023-07-28T13:05:13;98683.28;;;32.70;26.17
59063;BME280;44851;45.648;9.004;2023-07-28T13:07:39;98678.84;;;32.60;26.84